Login to view Products
 
Tuesday, January 22, 2019 (09:21 UTC)
Al Maktoum International Airport
Last Updated: 22-Jan-2019 (09:20Z)
Wind Dir/Speed: WNW at 10 kt
Temperature: 21.6°C
Rel. Humidity: 50 %
Pressure: 1017.4 hPa
Visibility: 10000 m
  • METAR OMDW 220900Z 29011KT 260V330 9999 FEW032 22/11 Q1018 NOSIG
  • TAF OMDW 220500Z 2206/2312 20006KT 8000 FEW035 BECMG 2206/2208 29014KT BECMG 2216/2218 18007KT PROB30 2222/2305 3000 BR BKN005 BECMG 2306/2308 30013KT=
D:\Input Parser\Destinations\Final\05\OMDWL06120500363553097.txt
1